sensor_id;sensor_type;location;lat;lon;timestamp;P1;durP1;ratioP1;P2;durP2;ratioP2
25443;SDS011;13368;52.346;4.678;2023-04-04T00:00:00;4.1;;;2.8;;
25443;SDS011;13368;52.346;4.678;2023-04-04T00:05:00;6.7;;;3.9;;
25443;SDS011;13368;52.346;4.678;2023-04-04T00:10:00;5.2;;;2.7;;
25443;SDS011;13368;52.346;4.678;2023-04-04T00:15:00;10.0;;;3.9;;
25443;SDS011;13368;52.346;4.678;2023-04-04T00:20:00;4.1;;;3.4;;
25443;SDS011;13368;52.346;4.678;2023-04-04T00:25:00;5.2;;;3.6;;
25443;SDS011;13368;52.346;4.678;2023-04-04T00:30:00;6.9;;;4.7;;
25443;SDS011;13368;52.346;4.678;2023-04-04T00:35:00;5.6;;;3.5;;
25443;SDS011;13368;52.346;4.678;2023-04-04T00:40:00;8.4;;;3.9;;
25443;SDS011;13368;52.346;4.678;2023-04-04T00:45:00;5.9;;;3.7;;
25443;SDS011;13368;52.346;4.678;2023-04-04T00:50:00;6.3;;;3.6;;
25443;SDS011;13368;52.346;4.678;2023-04-04T00:55:00;7.9;;;3.9;;
25443;SDS011;13368;52.346;4.678;2023-04-04T01:00:00;5.7;;;3.7;;
25443;SDS011;13368;52.346;4.678;2023-04-04T01:05:00;6.8;;;4.1;;
25443;SDS011;13368;52.346;4.678;2023-04-04T01:10:00;9.6;;;5.0;;
25443;SDS011;13368;52.346;4.678;2023-04-04T01:15:00;7.4;;;4.1;;
25443;SDS011;13368;52.346;4.678;2023-04-04T01:20:02;7.0;;;3.8;;
25443;SDS011;13368;52.346;4.678;2023-04-04T01:25:00;8.3;;;4.0;;
25443;SDS011;13368;52.346;4.678;2023-04-04T01:30:00;7.3;;;4.5;;
25443;SDS011;13368;52.346;4.678;2023-04-04T01:35:03;7.1;;;3.6;;
25443;SDS011;13368;52.346;4.678;2023-04-04T01:40:03;8.4;;;4.0;;
25443;SDS011;13368;52.346;4.678;2023-04-04T01:45:00;7.0;;;4.7;;
25443;SDS011;13368;52.346;4.678;2023-04-04T01:50:00;6.0;;;3.8;;
25443;SDS011;13368;52.346;4.678;2023-04-04T01:55:00;5.6;;;4.3;;
25443;SDS011;13368;52.346;4.678;2023-04-04T02:00:00;7.0;;;4.2;;
25443;SDS011;13368;52.346;4.678;2023-04-04T02:05:00;8.1;;;4.3;;
25443;SDS011;13368;52.346;4.678;2023-04-04T02:10:00;6.5;;;4.0;;
25443;SDS011;13368;52.346;4.678;2023-04-04T02:15:00;6.4;;;3.9;;
25443;SDS011;13368;52.346;4.678;2023-04-04T02:20:00;5.9;;;4.0;;
25443;SDS011;13368;52.346;4.678;2023-04-04T02:25:00;10.1;;;4.3;;
25443;SDS011;13368;52.346;4.678;2023-04-04T02:30:00;6.2;;;4.3;;
25443;SDS011;13368;52.346;4.678;2023-04-04T02:35:00;7.8;;;4.4;;
25443;SDS011;13368;52.346;4.678;2023-04-04T02:40:00;6.6;;;4.4;;
25443;SDS011;13368;52.346;4.678;2023-04-04T02:45:00;6.4;;;4.2;;
25443;SDS011;13368;52.346;4.678;2023-04-04T02:50:00;7.5;;;4.2;;
25443;SDS011;13368;52.346;4.678;2023-04-04T02:55:00;11.6;;;6.4;;
25443;SDS011;13368;52.346;4.678;2023-04-04T03:00:00;12.6;;;6.7;;
25443;SDS011;13368;52.346;4.678;2023-04-04T03:05:00;11.5;;;6.5;;
25443;SDS011;13368;52.346;4.678;2023-04-04T03:10:00;9.0;;;5.7;;
25443;SDS011;13368;52.346;4.678;2023-04-04T03:15:00;11.9;;;7.4;;
25443;SDS011;13368;52.346;4.678;2023-04-04T03:20:00;10.7;;;5.9;;
25443;SDS011;13368;52.346;4.678;2023-04-04T03:25:00;8.9;;;5.3;;
25443;SDS011;13368;52.346;4.678;2023-04-04T03:30:00;6.9;;;5.3;;
25443;SDS011;13368;52.346;4.678;2023-04-04T03:35:00;9.0;;;5.8;;
25443;SDS011;13368;52.346;4.678;2023-04-04T03:40:00;10.6;;;5.5;;
25443;SDS011;13368;52.346;4.678;2023-04-04T03:45:01;7.6;;;5.7;;
25443;SDS011;13368;52.346;4.678;2023-04-04T03:50:00;9.7;;;5.2;;
25443;SDS011;13368;52.346;4.678;2023-04-04T03:55:00;9.5;;;5.6;;
25443;SDS011;13368;52.346;4.678;2023-04-04T04:00:00;8.2;;;5.5;;
25443;SDS011;13368;52.346;4.678;2023-04-04T04:05:00;11.5;;;5.8;;
25443;SDS011;13368;52.346;4.678;2023-04-04T04:10:00;8.7;;;5.3;;
25443;SDS011;13368;52.346;4.678;2023-04-04T04:15:00;11.1;;;5.5;;
25443;SDS011;13368;52.346;4.678;2023-04-04T04:20:00;7.1;;;5.2;;
25443;SDS011;13368;52.346;4.678;2023-04-04T04:25:00;11.2;;;6.1;;
25443;SDS011;13368;52.346;4.678;2023-04-04T04:30:00;9.2;;;5.6;;
25443;SDS011;13368;52.346;4.678;2023-04-04T04:35:00;10.5;;;5.6;;
25443;SDS011;13368;52.346;4.678;2023-04-04T04:40:00;9.5;;;6.2;;
25443;SDS011;13368;52.346;4.678;2023-04-04T04:45:00;9.3;;;6.6;;
25443;SDS011;13368;52.346;4.678;2023-04-04T04:50:00;10.8;;;6.7;;
25443;SDS011;13368;52.346;4.678;2023-04-04T04:55:00;10.1;;;6.6;;
25443;SDS011;13368;52.346;4.678;2023-04-04T05:00:00;9.5;;;6.9;;
25443;SDS011;13368;52.346;4.678;2023-04-04T05:05:00;10.8;;;7.2;;
25443;SDS011;13368;52.346;4.678;2023-04-04T05:10:00;12.3;;;7.2;;
25443;SDS011;13368;52.346;4.678;2023-04-04T05:15:00;11.8;;;7.1;;
25443;SDS011;13368;52.346;4.678;2023-04-04T05:20:00;13.7;;;7.8;;
25443;SDS011;13368;52.346;4.678;2023-04-04T05:25:00;18.9;;;9.2;;
25443;SDS011;13368;52.346;4.678;2023-04-04T05:30:00;18.0;;;8.7;;
25443;SDS011;13368;52.346;4.678;2023-04-04T05:35:00;17.7;;;8.6;;
25443;SDS011;13368;52.346;4.678;2023-04-04T05:40:00;18.0;;;9.7;;
25443;SDS011;13368;52.346;4.678;2023-04-04T05:45:00;16.6;;;9.0;;
25443;SDS011;13368;52.346;4.678;2023-04-04T05:50:00;16.0;;;8.7;;
25443;SDS011;13368;52.346;4.678;2023-04-04T05:55:00;15.8;;;9.4;;
25443;SDS011;13368;52.346;4.678;2023-04-04T06:00:00;17.0;;;9.5;;
25443;SDS011;13368;52.346;4.678;2023-04-04T06:05:00;20.0;;;10.2;;
25443;SDS011;13368;52.346;4.678;2023-04-04T06:10:00;18.5;;;9.9;;
25443;SDS011;13368;52.346;4.678;2023-04-04T06:15:00;19.4;;;10.0;;
25443;SDS011;13368;52.346;4.678;2023-04-04T06:20:00;19.5;;;10.1;;
25443;SDS011;13368;52.346;4.678;2023-04-04T06:25:00;17.7;;;10.3;;
25443;SDS011;13368;52.346;4.678;2023-04-04T06:30:00;20.7;;;10.2;;
25443;SDS011;13368;52.346;4.678;2023-04-04T06:35:00;18.2;;;10.8;;
25443;SDS011;13368;52.346;4.678;2023-04-04T06:40:00;18.4;;;10.5;;
25443;SDS011;13368;52.346;4.678;2023-04-04T06:45:00;18.3;;;10.0;;
25443;SDS011;13368;52.346;4.678;2023-04-04T06:50:00;13.3;;;8.3;;
25443;SDS011;13368;52.346;4.678;2023-04-04T06:55:00;15.7;;;8.2;;
25443;SDS011;13368;52.346;4.678;2023-04-04T07:00:00;13.2;;;8.9;;
25443;SDS011;13368;52.346;4.678;2023-04-04T07:05:00;12.6;;;8.3;;
25443;SDS011;13368;52.346;4.678;2023-04-04T07:10:00;14.3;;;8.0;;
25443;SDS011;13368;52.346;4.678;2023-04-04T07:15:00;13.9;;;8.7;;
25443;SDS011;13368;52.346;4.678;2023-04-04T07:20:00;15.5;;;8.9;;
25443;SDS011;13368;52.346;4.678;2023-04-04T07:25:00;12.9;;;8.0;;
25443;SDS011;13368;52.346;4.678;2023-04-04T07:30:00;13.2;;;8.2;;
25443;SDS011;13368;52.346;4.678;2023-04-04T07:35:00;16.7;;;8.3;;
25443;SDS011;13368;52.346;4.678;2023-04-04T07:40:00;20.1;;;8.9;;
25443;SDS011;13368;52.346;4.678;2023-04-04T07:45:00;13.3;;;7.7;;
25443;SDS011;13368;52.346;4.678;2023-04-04T07:50:00;12.0;;;7.5;;
25443;SDS011;13368;52.346;4.678;2023-04-04T07:55:00;13.3;;;7.3;;
25443;SDS011;13368;52.346;4.678;2023-04-04T08:00:00;11.2;;;6.6;;
25443;SDS011;13368;52.346;4.678;2023-04-04T08:05:00;13.8;;;7.2;;
25443;SDS011;13368;52.346;4.678;2023-04-04T08:10:00;13.9;;;8.4;;
25443;SDS011;13368;52.346;4.678;2023-04-04T08:15:00;12.2;;;6.8;;
25443;SDS011;13368;52.346;4.678;2023-04-04T08:20:00;10.6;;;6.7;;
25443;SDS011;13368;52.346;4.678;2023-04-04T08:25:00;9.6;;;5.6;;
25443;SDS011;13368;52.346;4.678;2023-04-04T08:30:00;8.5;;;5.0;;
25443;SDS011;13368;52.346;4.678;2023-04-04T08:35:00;4.9;;;3.7;;
25443;SDS011;13368;52.346;4.678;2023-04-04T08:40:00;10.7;;;3.6;;
25443;SDS011;13368;52.346;4.678;2023-04-04T08:45:00;3.8;;;3.4;;
25443;SDS011;13368;52.346;4.678;2023-04-04T08:50:01;6.5;;;3.5;;
25443;SDS011;13368;52.346;4.678;2023-04-04T08:55:00;7.5;;;3.1;;
25443;SDS011;13368;52.346;4.678;2023-04-04T09:00:00;7.1;;;3.5;;
25443;SDS011;13368;52.346;4.678;2023-04-04T09:05:00;4.6;;;3.3;;
25443;SDS011;13368;52.346;4.678;2023-04-04T09:10:00;5.5;;;3.5;;
25443;SDS011;13368;52.346;4.678;2023-04-04T09:15:00;8.1;;;4.5;;
25443;SDS011;13368;52.346;4.678;2023-04-04T09:20:00;9.1;;;3.8;;
25443;SDS011;13368;52.346;4.678;2023-04-04T09:25:00;10.8;;;3.9;;
25443;SDS011;13368;52.346;4.678;2023-04-04T09:30:00;9.7;;;4.4;;
25443;SDS011;13368;52.346;4.678;2023-04-04T09:35:00;9.4;;;4.5;;
25443;SDS011;13368;52.346;4.678;2023-04-04T09:40:00;8.4;;;4.6;;
25443;SDS011;13368;52.346;4.678;2023-04-04T09:45:00;9.6;;;4.4;;
25443;SDS011;13368;52.346;4.678;2023-04-04T09:50:00;13.3;;;4.9;;
25443;SDS011;13368;52.346;4.678;2023-04-04T09:55:02;8.8;;;5.3;;
25443;SDS011;13368;52.346;4.678;2023-04-04T10:00:01;5.3;;;4.2;;
25443;SDS011;13368;52.346;4.678;2023-04-04T10:05:00;7.8;;;4.9;;
25443;SDS011;13368;52.346;4.678;2023-04-04T10:10:00;7.9;;;4.8;;
25443;SDS011;13368;52.346;4.678;2023-04-04T10:15:01;10.4;;;4.9;;
25443;SDS011;13368;52.346;4.678;2023-04-04T10:20:00;8.3;;;4.8;;
25443;SDS011;13368;52.346;4.678;2023-04-04T10:25:00;8.4;;;4.8;;
25443;SDS011;13368;52.346;4.678;2023-04-04T10:30:00;6.1;;;4.2;;
25443;SDS011;13368;52.346;4.678;2023-04-04T10:35:01;8.0;;;5.2;;
25443;SDS011;13368;52.346;4.678;2023-04-04T10:40:01;5.9;;;4.0;;
25443;SDS011;13368;52.346;4.678;2023-04-04T10:45:00;7.0;;;4.5;;
25443;SDS011;13368;52.346;4.678;2023-04-04T10:50:00;7.3;;;4.6;;
25443;SDS011;13368;52.346;4.678;2023-04-04T10:55:01;8.7;;;4.6;;
25443;SDS011;13368;52.346;4.678;2023-04-04T11:05:08;6.7;;;4.5;;
25443;SDS011;13368;52.346;4.678;2023-04-04T11:10:00;7.4;;;4.3;;
25443;SDS011;13368;52.346;4.678;2023-04-04T11:15:07;7.3;;;4.3;;
25443;SDS011;13368;52.346;4.678;2023-04-04T11:20:00;8.2;;;4.4;;
25443;SDS011;13368;52.346;4.678;2023-04-04T11:25:02;6.6;;;3.7;;
25443;SDS011;13368;52.346;4.678;2023-04-04T11:30:00;6.6;;;4.4;;
25443;SDS011;13368;52.346;4.678;2023-04-04T11:35:00;7.3;;;4.2;;
25443;SDS011;13368;52.346;4.678;2023-04-04T11:40:07;7.7;;;4.2;;
25443;SDS011;13368;52.346;4.678;2023-04-04T11:45:01;6.6;;;4.3;;
25443;SDS011;13368;52.346;4.678;2023-04-04T11:50:00;8.7;;;4.0;;
25443;SDS011;13368;52.346;4.678;2023-04-04T11:55:00;7.7;;;4.1;;
25443;SDS011;13368;52.346;4.678;2023-04-04T12:00:00;6.7;;;4.1;;
25443;SDS011;13368;52.346;4.678;2023-04-04T12:05:00;8.2;;;4.1;;
25443;SDS011;13368;52.346;4.678;2023-04-04T12:10:00;8.6;;;4.8;;
25443;SDS011;13368;52.346;4.678;2023-04-04T12:15:00;7.0;;;4.0;;
25443;SDS011;13368;52.346;4.678;2023-04-04T12:20:00;8.4;;;4.4;;
25443;SDS011;13368;52.346;4.678;2023-04-04T12:25:00;7.1;;;4.4;;
25443;SDS011;13368;52.346;4.678;2023-04-04T12:30:00;7.9;;;4.4;;
25443;SDS011;13368;52.346;4.678;2023-04-04T12:35:00;8.1;;;4.7;;
25443;SDS011;13368;52.346;4.678;2023-04-04T12:40:00;6.4;;;4.3;;
25443;SDS011;13368;52.346;4.678;2023-04-04T12:45:00;8.6;;;5.0;;
25443;SDS011;13368;52.346;4.678;2023-04-04T12:50:00;7.0;;;4.9;;
25443;SDS011;13368;52.346;4.678;2023-04-04T12:55:05;7.7;;;4.3;;
25443;SDS011;13368;52.346;4.678;2023-04-04T13:00:00;6.6;;;4.7;;
25443;SDS011;13368;52.346;4.678;2023-04-04T13:05:01;6.9;;;4.6;;
25443;SDS011;13368;52.346;4.678;2023-04-04T13:10:01;6.3;;;4.9;;
25443;SDS011;13368;52.346;4.678;2023-04-04T13:15:00;9.2;;;4.9;;
25443;SDS011;13368;52.346;4.678;2023-04-04T13:20:00;9.2;;;4.6;;
25443;SDS011;13368;52.346;4.678;2023-04-04T13:25:00;8.3;;;4.9;;
25443;SDS011;13368;52.346;4.678;2023-04-04T13:30:00;9.1;;;5.1;;
25443;SDS011;13368;52.346;4.678;2023-04-04T13:35:00;8.4;;;5.4;;
25443;SDS011;13368;52.346;4.678;2023-04-04T13:40:00;8.7;;;5.0;;
25443;SDS011;13368;52.346;4.678;2023-04-04T13:45:00;8.0;;;5.2;;
25443;SDS011;13368;52.346;4.678;2023-04-04T13:50:00;8.0;;;5.2;;
25443;SDS011;13368;52.346;4.678;2023-04-04T13:55:00;6.9;;;4.6;;
25443;SDS011;13368;52.346;4.678;2023-04-04T14:00:00;7.7;;;4.5;;
25443;SDS011;13368;52.346;4.678;2023-04-04T14:05:00;6.2;;;4.6;;
25443;SDS011;13368;52.346;4.678;2023-04-04T14:10:00;8.2;;;5.2;;
25443;SDS011;13368;52.346;4.678;2023-04-04T14:15:00;9.3;;;5.0;;
25443;SDS011;13368;52.346;4.678;2023-04-04T14:20:00;5.8;;;4.3;;
25443;SDS011;13368;52.346;4.678;2023-04-04T14:25:00;7.9;;;4.7;;
25443;SDS011;13368;52.346;4.678;2023-04-04T14:30:00;8.1;;;4.8;;
25443;SDS011;13368;52.346;4.678;2023-04-04T14:35:00;9.3;;;5.9;;
25443;SDS011;13368;52.346;4.678;2023-04-04T14:40:00;8.4;;;5.2;;
25443;SDS011;13368;52.346;4.678;2023-04-04T14:45:00;8.2;;;5.2;;
25443;SDS011;13368;52.346;4.678;2023-04-04T14:50:00;8.8;;;5.3;;
25443;SDS011;13368;52.346;4.678;2023-04-04T14:55:00;7.7;;;5.1;;
25443;SDS011;13368;52.346;4.678;2023-04-04T15:00:00;9.2;;;6.0;;
25443;SDS011;13368;52.346;4.678;2023-04-04T15:05:00;10.8;;;5.9;;
25443;SDS011;13368;52.346;4.678;2023-04-04T15:10:00;9.1;;;5.8;;
25443;SDS011;13368;52.346;4.678;2023-04-04T15:15:00;10.6;;;6.4;;
25443;SDS011;13368;52.346;4.678;2023-04-04T15:20:00;9.2;;;6.3;;
25443;SDS011;13368;52.346;4.678;2023-04-04T15:25:00;9.6;;;6.2;;
25443;SDS011;13368;52.346;4.678;2023-04-04T15:30:00;9.8;;;6.3;;
25443;SDS011;13368;52.346;4.678;2023-04-04T15:35:00;8.1;;;6.4;;
25443;SDS011;13368;52.346;4.678;2023-04-04T15:40:00;10.4;;;6.7;;
25443;SDS011;13368;52.346;4.678;2023-04-04T15:45:00;8.8;;;6.3;;
25443;SDS011;13368;52.346;4.678;2023-04-04T15:50:00;8.9;;;5.9;;
25443;SDS011;13368;52.346;4.678;2023-04-04T15:55:00;9.0;;;6.3;;
25443;SDS011;13368;52.346;4.678;2023-04-04T16:00:00;9.2;;;6.3;;
25443;SDS011;13368;52.346;4.678;2023-04-04T16:05:00;7.8;;;5.8;;
25443;SDS011;13368;52.346;4.678;2023-04-04T16:10:00;8.4;;;6.0;;
25443;SDS011;13368;52.346;4.678;2023-04-04T16:15:00;10.3;;;6.0;;
25443;SDS011;13368;52.346;4.678;2023-04-04T16:20:00;10.0;;;6.5;;
25443;SDS011;13368;52.346;4.678;2023-04-04T16:25:00;10.9;;;6.0;;
25443;SDS011;13368;52.346;4.678;2023-04-04T16:30:00;9.7;;;6.2;;
25443;SDS011;13368;52.346;4.678;2023-04-04T16:35:00;10.4;;;7.2;;
25443;SDS011;13368;52.346;4.678;2023-04-04T16:40:00;10.6;;;7.3;;
25443;SDS011;13368;52.346;4.678;2023-04-04T16:45:00;12.0;;;6.1;;
25443;SDS011;13368;52.346;4.678;2023-04-04T16:50:00;10.1;;;6.9;;
25443;SDS011;13368;52.346;4.678;2023-04-04T16:55:00;10.7;;;6.6;;
25443;SDS011;13368;52.346;4.678;2023-04-04T17:00:00;9.7;;;6.7;;
25443;SDS011;13368;52.346;4.678;2023-04-04T17:05:00;9.3;;;6.3;;
25443;SDS011;13368;52.346;4.678;2023-04-04T17:10:00;10.0;;;6.8;;
25443;SDS011;13368;52.346;4.678;2023-04-04T17:15:00;15.5;;;6.8;;
25443;SDS011;13368;52.346;4.678;2023-04-04T17:20:00;10.0;;;6.5;;
25443;SDS011;13368;52.346;4.678;2023-04-04T17:25:00;11.1;;;6.1;;
25443;SDS011;13368;52.346;4.678;2023-04-04T17:30:00;8.8;;;6.5;;
25443;SDS011;13368;52.346;4.678;2023-04-04T17:35:00;9.1;;;6.0;;
25443;SDS011;13368;52.346;4.678;2023-04-04T17:40:00;11.2;;;6.6;;
25443;SDS011;13368;52.346;4.678;2023-04-04T17:45:00;8.2;;;6.3;;
25443;SDS011;13368;52.346;4.678;2023-04-04T17:50:00;11.2;;;6.3;;
25443;SDS011;13368;52.346;4.678;2023-04-04T17:55:00;11.3;;;6.2;;
25443;SDS011;13368;52.346;4.678;2023-04-04T18:00:00;10.2;;;6.7;;
25443;SDS011;13368;52.346;4.678;2023-04-04T18:05:00;10.8;;;6.3;;
25443;SDS011;13368;52.346;4.678;2023-04-04T18:10:00;9.6;;;6.4;;
25443;SDS011;13368;52.346;4.678;2023-04-04T18:15:00;10.4;;;7.0;;
25443;SDS011;13368;52.346;4.678;2023-04-04T18:20:00;12.9;;;6.6;;
25443;SDS011;13368;52.346;4.678;2023-04-04T18:25:00;11.1;;;6.6;;
25443;SDS011;13368;52.346;4.678;2023-04-04T18:30:00;11.6;;;6.6;;
25443;SDS011;13368;52.346;4.678;2023-04-04T18:35:00;11.6;;;7.4;;
25443;SDS011;13368;52.346;4.678;2023-04-04T18:40:00;11.3;;;7.1;;
25443;SDS011;13368;52.346;4.678;2023-04-04T18:45:00;11.6;;;7.4;;
25443;SDS011;13368;52.346;4.678;2023-04-04T18:50:00;11.6;;;7.6;;
25443;SDS011;13368;52.346;4.678;2023-04-04T18:55:00;12.1;;;8.7;;
25443;SDS011;13368;52.346;4.678;2023-04-04T19:00:00;13.3;;;7.9;;
25443;SDS011;13368;52.346;4.678;2023-04-04T19:05:00;11.8;;;8.1;;
25443;SDS011;13368;52.346;4.678;2023-04-04T19:10:02;12.5;;;8.0;;
25443;SDS011;13368;52.346;4.678;2023-04-04T19:15:00;14.1;;;9.1;;
25443;SDS011;13368;52.346;4.678;2023-04-04T19:20:00;13.2;;;8.1;;
25443;SDS011;13368;52.346;4.678;2023-04-04T19:25:00;12.3;;;8.9;;
25443;SDS011;13368;52.346;4.678;2023-04-04T19:30:00;12.0;;;8.1;;
25443;SDS011;13368;52.346;4.678;2023-04-04T19:35:00;13.2;;;8.1;;
25443;SDS011;13368;52.346;4.678;2023-04-04T19:40:00;11.8;;;8.2;;
25443;SDS011;13368;52.346;4.678;2023-04-04T19:45:00;13.2;;;8.3;;
25443;SDS011;13368;52.346;4.678;2023-04-04T19:50:00;13.3;;;8.2;;
25443;SDS011;13368;52.346;4.678;2023-04-04T19:55:00;14.7;;;9.1;;
25443;SDS011;13368;52.346;4.678;2023-04-04T20:00:00;18.3;;;9.4;;
25443;SDS011;13368;52.346;4.678;2023-04-04T20:05:00;16.8;;;10.2;;
25443;SDS011;13368;52.346;4.678;2023-04-04T20:10:00;15.4;;;9.7;;
25443;SDS011;13368;52.346;4.678;2023-04-04T20:15:00;15.8;;;10.3;;
25443;SDS011;13368;52.346;4.678;2023-04-04T20:20:00;14.7;;;9.4;;
25443;SDS011;13368;52.346;4.678;2023-04-04T20:25:00;19.2;;;10.6;;
25443;SDS011;13368;52.346;4.678;2023-04-04T20:30:00;17.4;;;10.6;;
25443;SDS011;13368;52.346;4.678;2023-04-04T20:35:00;23.4;;;12.5;;
25443;SDS011;13368;52.346;4.678;2023-04-04T20:40:00;16.2;;;10.8;;
25443;SDS011;13368;52.346;4.678;2023-04-04T20:45:05;16.6;;;10.1;;
25443;SDS011;13368;52.346;4.678;2023-04-04T20:50:00;16.0;;;10.7;;
25443;SDS011;13368;52.346;4.678;2023-04-04T20:55:01;18.0;;;11.3;;
25443;SDS011;13368;52.346;4.678;2023-04-04T21:00:00;18.1;;;11.5;;
25443;SDS011;13368;52.346;4.678;2023-04-04T21:05:00;20.4;;;12.8;;
25443;SDS011;13368;52.346;4.678;2023-04-04T21:10:00;18.2;;;12.1;;
25443;SDS011;13368;52.346;4.678;2023-04-04T21:15:00;20.6;;;12.4;;
25443;SDS011;13368;52.346;4.678;2023-04-04T21:20:00;18.8;;;12.3;;
25443;SDS011;13368;52.346;4.678;2023-04-04T21:25:00;19.8;;;12.5;;
25443;SDS011;13368;52.346;4.678;2023-04-04T21:30:00;18.1;;;11.8;;
25443;SDS011;13368;52.346;4.678;2023-04-04T21:35:00;21.9;;;13.2;;
25443;SDS011;13368;52.346;4.678;2023-04-04T21:40:00;23.7;;;13.1;;
25443;SDS011;13368;52.346;4.678;2023-04-04T21:45:00;18.0;;;11.9;;
25443;SDS011;13368;52.346;4.678;2023-04-04T21:50:00;19.2;;;12.7;;
25443;SDS011;13368;52.346;4.678;2023-04-04T21:55:00;22.0;;;14.0;;
25443;SDS011;13368;52.346;4.678;2023-04-04T22:00:00;18.1;;;12.4;;
25443;SDS011;13368;52.346;4.678;2023-04-04T22:05:00;19.5;;;12.7;;
25443;SDS011;13368;52.346;4.678;2023-04-04T22:10:00;23.1;;;13.5;;
25443;SDS011;13368;52.346;4.678;2023-04-04T22:15:00;20.5;;;12.4;;
25443;SDS011;13368;52.346;4.678;2023-04-04T22:20:00;21.6;;;12.4;;
25443;SDS011;13368;52.346;4.678;2023-04-04T22:25:00;23.1;;;13.4;;
25443;SDS011;13368;52.346;4.678;2023-04-04T22:30:00;25.1;;;14.5;;
25443;SDS011;13368;52.346;4.678;2023-04-04T22:35:00;19.2;;;12.4;;
25443;SDS011;13368;52.346;4.678;2023-04-04T22:40:00;19.0;;;12.8;;
25443;SDS011;13368;52.346;4.678;2023-04-04T22:45:00;17.9;;;11.6;;
25443;SDS011;13368;52.346;4.678;2023-04-04T22:50:00;18.3;;;12.5;;
25443;SDS011;13368;52.346;4.678;2023-04-04T22:55:00;20.5;;;12.3;;
25443;SDS011;13368;52.346;4.678;2023-04-04T23:00:00;20.6;;;12.5;;
25443;SDS011;13368;52.346;4.678;2023-04-04T23:05:00;18.9;;;12.1;;
25443;SDS011;13368;52.346;4.678;2023-04-04T23:10:00;21.5;;;11.8;;
25443;SDS011;13368;52.346;4.678;2023-04-04T23:15:00;19.3;;;12.1;;
25443;SDS011;13368;52.346;4.678;2023-04-04T23:20:00;17.9;;;12.4;;
25443;SDS011;13368;52.346;4.678;2023-04-04T23:25:00;19.3;;;12.7;;
25443;SDS011;13368;52.346;4.678;2023-04-04T23:30:00;22.6;;;12.4;;
25443;SDS011;13368;52.346;4.678;2023-04-04T23:35:00;20.0;;;12.0;;
25443;SDS011;13368;52.346;4.678;2023-04-04T23:40:00;18.3;;;12.1;;
25443;SDS011;13368;52.346;4.678;2023-04-04T23:45:00;20.2;;;12.0;;
25443;SDS011;13368;52.346;4.678;2023-04-04T23:50:00;19.5;;;11.3;;
25443;SDS011;13368;52.346;4.678;2023-04-04T23:55:00;18.8;;;11.6;;
